• Join FlightAware (Why Join?)
  • Login
  • US Flag 
07:31PM EST


 

Airport Tracker/Info


-or-


 

Live Flight TrackerFlight Track Log ✈ LOF5032 ✈ 25-May-2013 ✈ KOKC - KIAH

Flight Track Log - Related Links

Times and Time Zones

All times are in EDT time to prevent confusion due to time zone crossing. See the LOF5032 flight status page for this flight to view local times or setup timezone preferences in your user account.

Time Position Orientation Groundspeed Altitude Reporting Facility
EDT Latitude Longitude Course Direction KTS MPH feet Rate Location/Type
11:47AM 35.3728 -97.5969 154° Southeast 166 191 1,800  Level Fort Worth Center
11:49AM 35.2762 -97.5833 180° South  Level FlightAware Approximate
11:49AM 35.2808 -97.5967 180° South 209 241 6,000  Level Fort Worth Center
11:50AM 35.2206 -97.5889 174° South 222 255 8,400 2,100 Climbing Fort Worth Center
11:50AM 35.2039 -97.5839 166° South 220 253 8,800 2,220 Climbing Fort Worth Center
11:51AM 35.0107 -97.4310 168° South  Level Estimated
11:51AM 35.1453 -97.5786 176° South 233 268 11,300  Level Fort Worth Center
11:52AM 34.9150 -97.3888 162° South  Level Estimated
11:52AM 35.0828 -97.5708 174° South 233 268 13,500  Level Fort Worth Center
11:53AM 34.8194 -97.3467 154° Southeast  Level Estimated
11:53AM 35.0161 -97.5631 175° South 233 268 15,600  Level Fort Worth Center
11:54AM 34.9514 -97.5478 169° South 233 268 17,200 1,320 Climbing Fort Worth Center
11:55AM 34.8806 -97.5250 165° South 246 283 18,300 1,260 Climbing Fort Worth Center
11:56AM 34.8033 -97.4994 165° South 265 305 19,800 1,560 Climbing Fort Worth Center
11:57AM 34.7261 -97.4742 165° South 280 322 21,500 1,680 Climbing Fort Worth Center
11:58AM 34.6450 -97.4489 166° South 290 334 23,200 1,560 Climbing Fort Worth Center
11:59AM 34.5614 -97.4236 166° South 301 346 24,700 1,260 Climbing Fort Worth Center
12:00PM 34.4758 -97.3958 165° South 308 354 25,800 1,020 Climbing Fort Worth Center
12:01PM 34.3842 -97.3683 166° South 322 371 26,800 1,020 Climbing Fort Worth Center
12:02PM 34.2861 -97.3356 165° South 345 397 27,900 1,020 Climbing Fort Worth Center
12:03PM 34.1836 -97.3056 166° South 364 419 28,900 1,020 Climbing Fort Worth Center
12:04PM 34.0772 -97.2681 164° South 376 433 30,000 1,020 Climbing Fort Worth Center
12:05PM 33.9728 -97.2356 166° South 370 426 31,000 480 Climbing Fort Worth Center
12:06PM 33.8644 -97.2033 166° South 388 447 31,000  Level Fort Worth Center
12:07PM 33.7517 -97.1661 165° South 402 463 31,000  Level Fort Worth Center
12:08PM 33.6347 -97.1314 166° South 424 488 31,000  Level Fort Worth Center
12:09PM 33.5133 -97.0944 166° South 436 502 31,000  Level Fort Worth Center
12:10PM 33.3944 -97.0578 166° South 441 507 31,000  Level Fort Worth Center
12:11PM 33.2711 -97.0183 165° South 448 516 31,000  Level Fort Worth Center
12:12PM 33.1478 -96.9817 166° South 453 521 31,000  Level Fort Worth Center
12:13PM 33.0328 -96.9475 166° South 453 521 31,000  Level Fort Worth Center
12:14PM 32.8969 -96.9061 166° South 459 528 31,000  Level Fort Worth Center
12:15PM 32.7864 -96.8747 167° South 454 522 31,000  Level Fort Worth Center
12:16PM 32.6525 -96.8361 166° South 454 522 31,000  Level Fort Worth Center
12:17PM 32.5458 -96.8072 167° South 449 517 31,000  Level Fort Worth Center
12:18PM 32.4267 -96.7733 167° South 449 517 31,000  Level Fort Worth Center
12:19PM 32.3056 -96.7375 166° South 449 517 31,000  Level Fort Worth Center
12:20PM 32.1842 -96.7064 168° South 449 517 31,000 -240 Level Fort Worth Center
12:21PM 32.0650 -96.6706 166° South 449 517 30,600 -660 Descending Fort Worth Center
12:22PM 31.9436 -96.6347 166° South 449 517 29,700 -1,020 Descending Fort Worth Center
12:23PM 31.8675 -96.6128 166° South 450 518 29,100 -480 Descending Houston Center
12:24PM 31.7492 -96.5786 166° South 435 501 29,000 -60 Descending Houston Center
12:25PM 31.6453 -96.5081 150° Southeast 430 495 29,000  Level Houston Center
12:26PM 31.5450 -96.4342 148° Southeast 424 488 29,000  Level Houston Center
12:27PM 31.4453 -96.3583 147° Southeast 422 486 29,000  Level Houston Center
12:28PM 31.3500 -96.2856 147° Southeast 408 470 29,000  Level Houston Center
12:29PM 31.2475 -96.2372 158° South 404 465 29,000  Level Houston Center
12:30PM 31.1444 -96.2717 196° South 384 442 29,000 -300 Level Houston Center
12:31PM 31.0436 -96.3189 202° Southwest 386 444 28,500 -840 Descending Houston Center
12:32PM 30.9269 -96.3733 202° Southwest 382 440 27,300 -1,080 Descending Houston Center
12:33PM 30.8225 -96.4000 192° South 387 445 26,400 -960 Descending Houston Center
12:34PM 30.7203 -96.3908 176° South 372 428 25,400 -1,080 Descending Houston Center
12:35PM 30.6567 -96.2992 129° Southeast 376 433 24,200 -1,920 Descending Houston Center
12:36PM 30.6308 -96.2475 120° Southeast 375 432 22,500 -4,260 Descending Houston Center
12:36PM 30.6061 -96.1889 116° Southeast 381 438 19,800 -3,780 Descending Houston Center
12:37PM 30.5539 -96.0769 118° Southeast 391 450 16,600 -2,580 Descending Houston Center
12:38PM 30.5367 -95.9794 102° East 299 344 14,900 -2,460 Descending Houston Center
12:39PM 30.5139 -95.9092 111° Southeast 288 331 12,400 -2,880 Descending Houston Center
12:40PM 30.4992 -95.9006 153° Southeast 297 342 11,600 -1,920 Descending Houston Center
12:41PM 30.4236 -95.9047 183° South 271 312 9,800 -1,380 Descending Houston Center
12:41PM 30.3547 -95.9131 186° South 250 288 9,100 -1,020 Descending Houston Center
12:42PM 30.2883 -95.9208 186° South 258 297 8,100 -1,020 Descending Houston Center
12:43PM 30.2700 -95.9233 187° South 256 295 7,900 -1,020 Descending Houston Center
12:43PM 30.2133 -95.9053 165° South 255 293 7,000 -1,200 Descending Houston Center
12:44PM 30.1581 -95.8464 137° Southeast 256 295 5,700 -1,440 Descending Houston Center
12:45PM 30.1300 -95.7917 121° Southeast 251 289 4,400 -1,320 Descending Houston Center
12:46PM 30.1211 -95.7683 114° Southeast 249 287 4,100 -840 Descending Houston Center
12:47PM 30.0919 -95.7100 120° Southeast 218 251 3,200 -540 Descending Houston Center
12:48PM 30.0653 -95.6528 118° Southeast 205 236 3,000 -120 Descending Houston Center
12:48PM 30.0400 -95.6044 121° Southeast 211 243 3,000  Level Houston Center
12:49PM 30.0306 -95.5814 115° Southeast 210 242 3,000  Level Houston Center
12:49PM 30.0111 -95.5403 119° Southeast 211 243 3,000  Level Houston Center